sensor_id;sensor_type;location;lat;lon;timestamp;P1;durP1;ratioP1;P2;durP2;ratioP2
54123;SDS011;55741;53.252;5.788;2023-03-14T00:00:58;32.75;;;5.95;;
54123;SDS011;55741;53.252;5.788;2023-03-14T00:03:24;24.70;;;5.80;;
54123;SDS011;55741;53.252;5.788;2023-03-14T00:05:51;30.38;;;6.80;;
54123;SDS011;55741;53.252;5.788;2023-03-14T00:08:17;32.78;;;6.00;;
54123;SDS011;55741;53.252;5.788;2023-03-14T00:10:44;29.33;;;4.78;;
54123;SDS011;55741;53.252;5.788;2023-03-14T00:13:12;28.00;;;5.47;;
54123;SDS011;55741;53.252;5.788;2023-03-14T00:15:38;27.67;;;5.43;;
54123;SDS011;55741;53.252;5.788;2023-03-14T00:18:06;23.48;;;4.70;;
54123;SDS011;55741;53.252;5.788;2023-03-14T00:23:58;28.13;;;5.60;;
54123;SDS011;55741;53.252;5.788;2023-03-14T00:26:24;25.77;;;5.10;;
54123;SDS011;55741;53.252;5.788;2023-03-14T00:28:51;20.88;;;4.32;;
54123;SDS011;55741;53.252;5.788;2023-03-14T00:31:20;29.75;;;4.55;;
54123;SDS011;55741;53.252;5.788;2023-03-14T00:33:47;28.17;;;5.30;;
54123;SDS011;55741;53.252;5.788;2023-03-14T00:36:15;22.25;;;4.07;;
54123;SDS011;55741;53.252;5.788;2023-03-14T00:38:42;23.63;;;5.25;;
54123;SDS011;55741;53.252;5.788;2023-03-14T00:41:11;18.92;;;5.45;;
54123;SDS011;55741;53.252;5.788;2023-03-14T00:43:44;22.98;;;4.85;;
54123;SDS011;55741;53.252;5.788;2023-03-14T00:46:10;23.40;;;4.93;;
54123;SDS011;55741;53.252;5.788;2023-03-14T00:48:37;25.40;;;5.47;;
54123;SDS011;55741;53.252;5.788;2023-03-14T00:51:07;27.67;;;4.75;;
54123;SDS011;55741;53.252;5.788;2023-03-14T00:53:35;32.40;;;6.03;;
54123;SDS011;55741;53.252;5.788;2023-03-14T00:56:03;27.25;;;5.75;;
54123;SDS011;55741;53.252;5.788;2023-03-14T00:58:31;21.23;;;4.38;;
54123;SDS011;55741;53.252;5.788;2023-03-14T01:00:57;29.10;;;5.30;;
54123;SDS011;55741;53.252;5.788;2023-03-14T01:03:23;27.17;;;4.55;;
54123;SDS011;55741;53.252;5.788;2023-03-14T01:05:50;40.90;;;5.45;;
54123;SDS011;55741;53.252;5.788;2023-03-14T01:08:16;24.75;;;5.50;;
54123;SDS011;55741;53.252;5.788;2023-03-14T01:10:42;23.73;;;4.72;;
54123;SDS011;55741;53.252;5.788;2023-03-14T01:13:09;19.10;;;4.65;;
54123;SDS011;55741;53.252;5.788;2023-03-14T01:15:38;27.77;;;4.72;;
54123;SDS011;55741;53.252;5.788;2023-03-14T01:18:04;29.30;;;5.10;;
54123;SDS011;55741;53.252;5.788;2023-03-14T01:20:30;25.98;;;5.82;;
54123;SDS011;55741;53.252;5.788;2023-03-14T01:22:56;27.00;;;4.35;;
54123;SDS011;55741;53.252;5.788;2023-03-14T01:25:23;26.55;;;5.88;;
54123;SDS011;55741;53.252;5.788;2023-03-14T01:27:50;25.60;;;4.93;;
54123;SDS011;55741;53.252;5.788;2023-03-14T01:30:16;23.75;;;4.60;;
54123;SDS011;55741;53.252;5.788;2023-03-14T01:32:42;27.15;;;5.07;;
54123;SDS011;55741;53.252;5.788;2023-03-14T01:35:13;26.33;;;5.60;;
54123;SDS011;55741;53.252;5.788;2023-03-14T01:37:39;29.50;;;6.05;;
54123;SDS011;55741;53.252;5.788;2023-03-14T01:40:05;33.80;;;4.80;;
54123;SDS011;55741;53.252;5.788;2023-03-14T01:42:34;33.45;;;5.55;;
54123;SDS011;55741;53.252;5.788;2023-03-14T01:45:01;29.25;;;5.60;;
54123;SDS011;55741;53.252;5.788;2023-03-14T01:47:28;34.83;;;6.25;;
54123;SDS011;55741;53.252;5.788;2023-03-14T01:50:04;38.05;;;6.72;;
54123;SDS011;55741;53.252;5.788;2023-03-14T01:52:36;35.45;;;5.50;;
54123;SDS011;55741;53.252;5.788;2023-03-14T01:55:18;35.35;;;6.30;;
54123;SDS011;55741;53.252;5.788;2023-03-14T01:57:49;46.08;;;6.30;;
54123;SDS011;55741;53.252;5.788;2023-03-14T02:00:22;30.58;;;6.13;;
54123;SDS011;55741;53.252;5.788;2023-03-14T02:02:55;36.28;;;6.10;;
54123;SDS011;55741;53.252;5.788;2023-03-14T02:05:36;35.00;;;5.80;;
54123;SDS011;55741;53.252;5.788;2023-03-14T02:08:07;40.83;;;6.53;;
54123;SDS011;55741;53.252;5.788;2023-03-14T02:10:37;34.97;;;7.22;;
54123;SDS011;55741;53.252;5.788;2023-03-14T02:13:06;27.73;;;5.45;;
54123;SDS011;55741;53.252;5.788;2023-03-14T02:15:33;26.85;;;5.97;;
54123;SDS011;55741;53.252;5.788;2023-03-14T02:17:59;28.70;;;5.30;;
54123;SDS011;55741;53.252;5.788;2023-03-14T02:23:07;32.75;;;5.45;;
54123;SDS011;55741;53.252;5.788;2023-03-14T02:28:11;22.23;;;4.47;;
54123;SDS011;55741;53.252;5.788;2023-03-14T02:30:38;29.00;;;5.55;;
54123;SDS011;55741;53.252;5.788;2023-03-14T02:33:08;32.25;;;5.90;;
54123;SDS011;55741;53.252;5.788;2023-03-14T02:35:50;33.72;;;6.07;;
54123;SDS011;55741;53.252;5.788;2023-03-14T02:41:04;40.55;;;6.07;;
54123;SDS011;55741;53.252;5.788;2023-03-14T02:43:30;31.95;;;5.22;;
54123;SDS011;55741;53.252;5.788;2023-03-14T02:45:56;34.35;;;5.85;;
54123;SDS011;55741;53.252;5.788;2023-03-14T02:48:26;29.10;;;5.07;;
54123;SDS011;55741;53.252;5.788;2023-03-14T02:50:59;30.13;;;5.40;;
54123;SDS011;55741;53.252;5.788;2023-03-14T02:53:27;38.67;;;7.30;;
54123;SDS011;55741;53.252;5.788;2023-03-14T02:55:55;27.77;;;4.47;;
54123;SDS011;55741;53.252;5.788;2023-03-14T02:58:24;21.45;;;4.45;;
54123;SDS011;55741;53.252;5.788;2023-03-14T03:00:50;30.35;;;5.97;;
54123;SDS011;55741;53.252;5.788;2023-03-14T03:03:17;43.30;;;6.97;;
54123;SDS011;55741;53.252;5.788;2023-03-14T03:05:47;37.80;;;4.68;;
54123;SDS011;55741;53.252;5.788;2023-03-14T03:08:18;32.97;;;5.88;;
54123;SDS011;55741;53.252;5.788;2023-03-14T03:10:44;31.70;;;4.70;;
54123;SDS011;55741;53.252;5.788;2023-03-14T03:13:10;37.50;;;6.38;;
54123;SDS011;55741;53.252;5.788;2023-03-14T03:15:36;30.05;;;6.13;;
54123;SDS011;55741;53.252;5.788;2023-03-14T03:18:03;34.55;;;6.35;;
54123;SDS011;55741;53.252;5.788;2023-03-14T03:20:29;39.90;;;6.35;;
54123;SDS011;55741;53.252;5.788;2023-03-14T03:22:55;33.90;;;5.93;;
54123;SDS011;55741;53.252;5.788;2023-03-14T03:25:21;38.40;;;6.03;;
54123;SDS011;55741;53.252;5.788;2023-03-14T03:27:48;41.63;;;7.45;;
54123;SDS011;55741;53.252;5.788;2023-03-14T03:30:15;45.13;;;6.38;;
54123;SDS011;55741;53.252;5.788;2023-03-14T03:32:41;29.02;;;6.28;;
54123;SDS011;55741;53.252;5.788;2023-03-14T03:35:07;45.00;;;7.30;;
54123;SDS011;55741;53.252;5.788;2023-03-14T03:37:33;43.95;;;6.22;;
54123;SDS011;55741;53.252;5.788;2023-03-14T03:40:00;37.75;;;7.03;;
54123;SDS011;55741;53.252;5.788;2023-03-14T03:42:28;42.40;;;7.90;;
54123;SDS011;55741;53.252;5.788;2023-03-14T03:44:54;33.78;;;5.45;;
54123;SDS011;55741;53.252;5.788;2023-03-14T03:47:20;46.70;;;8.48;;
54123;SDS011;55741;53.252;5.788;2023-03-14T03:49:46;48.15;;;6.97;;
54123;SDS011;55741;53.252;5.788;2023-03-14T03:52:12;39.78;;;6.05;;
54123;SDS011;55741;53.252;5.788;2023-03-14T03:54:39;37.38;;;6.47;;
54123;SDS011;55741;53.252;5.788;2023-03-14T03:57:05;42.28;;;7.65;;
54123;SDS011;55741;53.252;5.788;2023-03-14T03:59:31;36.40;;;6.18;;
54123;SDS011;55741;53.252;5.788;2023-03-14T04:01:57;41.17;;;8.65;;
54123;SDS011;55741;53.252;5.788;2023-03-14T04:04:23;43.90;;;7.15;;
54123;SDS011;55741;53.252;5.788;2023-03-14T04:06:49;44.13;;;6.63;;
54123;SDS011;55741;53.252;5.788;2023-03-14T04:09:14;35.38;;;6.82;;
54123;SDS011;55741;53.252;5.788;2023-03-14T04:11:41;47.97;;;8.48;;
54123;SDS011;55741;53.252;5.788;2023-03-14T04:14:07;53.75;;;7.85;;
54123;SDS011;55741;53.252;5.788;2023-03-14T04:16:33;40.10;;;7.00;;
54123;SDS011;55741;53.252;5.788;2023-03-14T04:19:13;44.28;;;7.22;;
54123;SDS011;55741;53.252;5.788;2023-03-14T04:21:41;50.47;;;8.05;;
54123;SDS011;55741;53.252;5.788;2023-03-14T04:24:10;44.25;;;7.15;;
54123;SDS011;55741;53.252;5.788;2023-03-14T04:26:38;48.03;;;8.07;;
54123;SDS011;55741;53.252;5.788;2023-03-14T04:29:12;37.78;;;6.05;;
54123;SDS011;55741;53.252;5.788;2023-03-14T04:31:38;40.38;;;6.35;;
54123;SDS011;55741;53.252;5.788;2023-03-14T04:34:04;42.30;;;5.93;;
54123;SDS011;55741;53.252;5.788;2023-03-14T04:36:30;51.08;;;7.78;;
54123;SDS011;55741;53.252;5.788;2023-03-14T04:38:56;47.08;;;6.25;;
54123;SDS011;55741;53.252;5.788;2023-03-14T04:41:22;42.10;;;8.15;;
54123;SDS011;55741;53.252;5.788;2023-03-14T04:43:48;33.88;;;6.40;;
54123;SDS011;55741;53.252;5.788;2023-03-14T04:46:14;31.27;;;5.38;;
54123;SDS011;55741;53.252;5.788;2023-03-14T04:48:40;32.13;;;5.65;;
54123;SDS011;55741;53.252;5.788;2023-03-14T04:51:05;22.17;;;5.32;;
54123;SDS011;55741;53.252;5.788;2023-03-14T04:53:32;22.00;;;5.00;;
54123;SDS011;55741;53.252;5.788;2023-03-14T04:56:01;32.78;;;5.43;;
54123;SDS011;55741;53.252;5.788;2023-03-14T04:58:28;27.85;;;6.18;;
54123;SDS011;55741;53.252;5.788;2023-03-14T05:00:54;20.60;;;4.53;;
54123;SDS011;55741;53.252;5.788;2023-03-14T05:03:20;20.40;;;4.25;;
54123;SDS011;55741;53.252;5.788;2023-03-14T05:05:46;26.25;;;4.95;;
54123;SDS011;55741;53.252;5.788;2023-03-14T05:08:11;22.83;;;4.68;;
54123;SDS011;55741;53.252;5.788;2023-03-14T05:10:38;23.83;;;4.57;;
54123;SDS011;55741;53.252;5.788;2023-03-14T05:13:03;25.42;;;4.60;;
54123;SDS011;55741;53.252;5.788;2023-03-14T05:15:29;16.30;;;3.95;;
54123;SDS011;55741;53.252;5.788;2023-03-14T05:17:55;20.95;;;4.45;;
54123;SDS011;55741;53.252;5.788;2023-03-14T05:20:21;18.25;;;4.97;;
54123;SDS011;55741;53.252;5.788;2023-03-14T05:22:47;25.13;;;4.50;;
54123;SDS011;55741;53.252;5.788;2023-03-14T05:25:13;17.25;;;3.42;;
54123;SDS011;55741;53.252;5.788;2023-03-14T05:27:39;17.23;;;4.32;;
54123;SDS011;55741;53.252;5.788;2023-03-14T05:30:07;14.50;;;3.05;;
54123;SDS011;55741;53.252;5.788;2023-03-14T05:32:33;15.77;;;2.78;;
54123;SDS011;55741;53.252;5.788;2023-03-14T05:35:02;16.10;;;2.72;;
54123;SDS011;55741;53.252;5.788;2023-03-14T05:37:28;19.50;;;2.67;;
54123;SDS011;55741;53.252;5.788;2023-03-14T05:39:55;19.45;;;2.97;;
54123;SDS011;55741;53.252;5.788;2023-03-14T05:42:20;15.95;;;3.03;;
54123;SDS011;55741;53.252;5.788;2023-03-14T05:44:46;15.38;;;2.25;;
54123;SDS011;55741;53.252;5.788;2023-03-14T05:47:12;12.85;;;2.08;;
54123;SDS011;55741;53.252;5.788;2023-03-14T05:49:38;26.08;;;4.40;;
54123;SDS011;55741;53.252;5.788;2023-03-14T05:52:24;19.45;;;2.80;;
54123;SDS011;55741;53.252;5.788;2023-03-14T05:55:10;17.67;;;3.80;;
54123;SDS011;55741;53.252;5.788;2023-03-14T05:57:56;23.40;;;2.50;;
54123;SDS011;55741;53.252;5.788;2023-03-14T06:00:42;24.80;;;4.00;;
54123;SDS011;55741;53.252;5.788;2023-03-14T06:03:27;22.08;;;3.30;;
54123;SDS011;55741;53.252;5.788;2023-03-14T06:06:13;19.23;;;2.97;;
54123;SDS011;55741;53.252;5.788;2023-03-14T06:08:49;20.40;;;2.38;;
54123;SDS011;55741;53.252;5.788;2023-03-14T06:11:15;14.10;;;2.58;;
54123;SDS011;55741;53.252;5.788;2023-03-14T06:13:41;16.90;;;2.55;;
54123;SDS011;55741;53.252;5.788;2023-03-14T06:16:07;11.30;;;2.13;;
54123;SDS011;55741;53.252;5.788;2023-03-14T06:18:33;14.07;;;1.83;;
54123;SDS011;55741;53.252;5.788;2023-03-14T06:20:59;8.95;;;1.73;;
54123;SDS011;55741;53.252;5.788;2023-03-14T06:23:25;10.35;;;1.50;;
54123;SDS011;55741;53.252;5.788;2023-03-14T06:25:51;10.00;;;1.40;;
54123;SDS011;55741;53.252;5.788;2023-03-14T06:28:17;17.90;;;2.65;;
54123;SDS011;55741;53.252;5.788;2023-03-14T06:30:45;7.15;;;1.52;;
54123;SDS011;55741;53.252;5.788;2023-03-14T06:33:11;13.43;;;1.75;;
54123;SDS011;55741;53.252;5.788;2023-03-14T06:35:36;11.13;;;2.13;;
54123;SDS011;55741;53.252;5.788;2023-03-14T06:38:02;11.95;;;1.98;;
54123;SDS011;55741;53.252;5.788;2023-03-14T06:40:29;8.98;;;1.45;;
54123;SDS011;55741;53.252;5.788;2023-03-14T06:42:55;8.73;;;1.40;;
54123;SDS011;55741;53.252;5.788;2023-03-14T06:45:21;8.65;;;1.52;;
54123;SDS011;55741;53.252;5.788;2023-03-14T06:47:47;11.13;;;1.60;;
54123;SDS011;55741;53.252;5.788;2023-03-14T06:50:13;9.02;;;1.50;;
54123;SDS011;55741;53.252;5.788;2023-03-14T06:52:42;10.80;;;1.58;;
54123;SDS011;55741;53.252;5.788;2023-03-14T06:55:14;7.82;;;1.60;;
54123;SDS011;55741;53.252;5.788;2023-03-14T06:57:40;16.70;;;2.35;;
54123;SDS011;55741;53.252;5.788;2023-03-14T07:00:07;15.63;;;1.85;;
54123;SDS011;55741;53.252;5.788;2023-03-14T07:02:37;6.05;;;1.35;;
54123;SDS011;55741;53.252;5.788;2023-03-14T07:05:04;14.35;;;1.77;;
54123;SDS011;55741;53.252;5.788;2023-03-14T07:07:31;14.32;;;1.92;;
54123;SDS011;55741;53.252;5.788;2023-03-14T07:09:56;11.15;;;1.30;;
54123;SDS011;55741;53.252;5.788;2023-03-14T07:12:22;14.30;;;2.63;;
54123;SDS011;55741;53.252;5.788;2023-03-14T07:14:48;13.77;;;2.20;;
54123;SDS011;55741;53.252;5.788;2023-03-14T07:17:14;16.35;;;1.70;;
54123;SDS011;55741;53.252;5.788;2023-03-14T07:19:40;10.88;;;2.03;;
54123;SDS011;55741;53.252;5.788;2023-03-14T07:22:06;16.02;;;2.20;;
54123;SDS011;55741;53.252;5.788;2023-03-14T07:24:32;15.25;;;2.17;;
54123;SDS011;55741;53.252;5.788;2023-03-14T07:26:58;11.57;;;2.72;;
54123;SDS011;55741;53.252;5.788;2023-03-14T07:29:33;15.32;;;2.85;;
54123;SDS011;55741;53.252;5.788;2023-03-14T07:32:00;10.70;;;1.90;;
54123;SDS011;55741;53.252;5.788;2023-03-14T07:34:26;20.77;;;2.92;;
54123;SDS011;55741;53.252;5.788;2023-03-14T07:36:52;14.38;;;2.85;;
54123;SDS011;55741;53.252;5.788;2023-03-14T07:39:18;19.52;;;2.75;;
54123;SDS011;55741;53.252;5.788;2023-03-14T07:41:44;15.07;;;2.83;;
54123;SDS011;55741;53.252;5.788;2023-03-14T07:44:10;21.63;;;3.08;;
54123;SDS011;55741;53.252;5.788;2023-03-14T07:46:36;17.23;;;2.90;;
54123;SDS011;55741;53.252;5.788;2023-03-14T07:49:01;26.70;;;4.40;;
54123;SDS011;55741;53.252;5.788;2023-03-14T07:51:27;18.80;;;2.70;;
54123;SDS011;55741;53.252;5.788;2023-03-14T07:53:53;26.40;;;4.35;;
54123;SDS011;55741;53.252;5.788;2023-03-14T07:56:19;25.30;;;3.28;;
54123;SDS011;55741;53.252;5.788;2023-03-14T07:58:45;20.98;;;3.13;;
54123;SDS011;55741;53.252;5.788;2023-03-14T08:01:11;26.20;;;3.60;;
54123;SDS011;55741;53.252;5.788;2023-03-14T08:03:38;26.50;;;3.63;;
54123;SDS011;55741;53.252;5.788;2023-03-14T08:06:04;27.92;;;3.55;;
54123;SDS011;55741;53.252;5.788;2023-03-14T08:08:30;16.10;;;3.03;;
54123;SDS011;55741;53.252;5.788;2023-03-14T08:11:01;21.33;;;3.80;;
54123;SDS011;55741;53.252;5.788;2023-03-14T08:13:37;24.42;;;3.95;;
54123;SDS011;55741;53.252;5.788;2023-03-14T08:16:06;23.60;;;3.63;;
54123;SDS011;55741;53.252;5.788;2023-03-14T08:18:34;21.55;;;3.58;;
54123;SDS011;55741;53.252;5.788;2023-03-14T08:21:02;20.52;;;3.53;;
54123;SDS011;55741;53.252;5.788;2023-03-14T08:23:28;24.15;;;3.47;;
54123;SDS011;55741;53.252;5.788;2023-03-14T08:25:54;22.58;;;4.68;;
54123;SDS011;55741;53.252;5.788;2023-03-14T08:28:20;27.13;;;4.13;;
54123;SDS011;55741;53.252;5.788;2023-03-14T08:30:46;26.73;;;4.18;;
54123;SDS011;55741;53.252;5.788;2023-03-14T08:33:13;24.48;;;4.35;;
54123;SDS011;55741;53.252;5.788;2023-03-14T08:35:39;25.42;;;4.03;;
54123;SDS011;55741;53.252;5.788;2023-03-14T08:38:05;25.15;;;3.97;;
54123;SDS011;55741;53.252;5.788;2023-03-14T08:40:31;23.23;;;4.03;;
54123;SDS011;55741;53.252;5.788;2023-03-14T08:42:57;27.52;;;5.35;;
54123;SDS011;55741;53.252;5.788;2023-03-14T08:45:23;21.45;;;4.60;;
54123;SDS011;55741;53.252;5.788;2023-03-14T08:47:50;25.25;;;3.92;;
54123;SDS011;55741;53.252;5.788;2023-03-14T08:50:16;19.35;;;3.75;;
54123;SDS011;55741;53.252;5.788;2023-03-14T08:52:42;19.77;;;3.83;;
54123;SDS011;55741;53.252;5.788;2023-03-14T08:55:08;23.50;;;3.40;;
54123;SDS011;55741;53.252;5.788;2023-03-14T08:57:34;13.35;;;3.30;;
54123;SDS011;55741;53.252;5.788;2023-03-14T09:00:02;19.90;;;4.22;;
54123;SDS011;55741;53.252;5.788;2023-03-14T09:02:40;20.48;;;4.22;;
54123;SDS011;55741;53.252;5.788;2023-03-14T09:05:08;23.52;;;3.65;;
54123;SDS011;55741;53.252;5.788;2023-03-14T09:07:35;23.17;;;4.40;;
54123;SDS011;55741;53.252;5.788;2023-03-14T09:10:02;34.28;;;5.40;;
54123;SDS011;55741;53.252;5.788;2023-03-14T09:12:28;25.60;;;3.83;;
54123;SDS011;55741;53.252;5.788;2023-03-14T09:14:54;32.05;;;4.50;;
54123;SDS011;55741;53.252;5.788;2023-03-14T09:17:20;30.67;;;5.15;;
54123;SDS011;55741;53.252;5.788;2023-03-14T09:19:46;27.75;;;4.32;;
54123;SDS011;55741;53.252;5.788;2023-03-14T09:22:12;29.15;;;5.03;;
54123;SDS011;55741;53.252;5.788;2023-03-14T09:24:37;27.90;;;5.10;;
54123;SDS011;55741;53.252;5.788;2023-03-14T09:27:05;29.35;;;4.78;;
54123;SDS011;55741;53.252;5.788;2023-03-14T09:29:31;22.35;;;3.53;;
54123;SDS011;55741;53.252;5.788;2023-03-14T09:31:58;23.80;;;5.22;;
54123;SDS011;55741;53.252;5.788;2023-03-14T09:34:26;22.17;;;4.72;;
54123;SDS011;55741;53.252;5.788;2023-03-14T09:36:52;15.10;;;3.58;;
54123;SDS011;55741;53.252;5.788;2023-03-14T09:39:18;19.23;;;3.95;;
54123;SDS011;55741;53.252;5.788;2023-03-14T09:41:45;21.83;;;4.57;;
54123;SDS011;55741;53.252;5.788;2023-03-14T09:44:18;21.95;;;4.22;;
54123;SDS011;55741;53.252;5.788;2023-03-14T09:46:50;33.92;;;5.15;;
54123;SDS011;55741;53.252;5.788;2023-03-14T09:49:27;22.90;;;3.63;;
54123;SDS011;55741;53.252;5.788;2023-03-14T09:54:47;24.37;;;4.20;;
54123;SDS011;55741;53.252;5.788;2023-03-14T09:57:14;21.80;;;3.25;;
54123;SDS011;55741;53.252;5.788;2023-03-14T09:59:44;19.52;;;3.38;;
54123;SDS011;55741;53.252;5.788;2023-03-14T10:02:16;19.50;;;3.45;;
54123;SDS011;55741;53.252;5.788;2023-03-14T10:04:51;28.38;;;4.82;;
54123;SDS011;55741;53.252;5.788;2023-03-14T10:07:20;24.63;;;3.13;;
54123;SDS011;55741;53.252;5.788;2023-03-14T10:09:57;16.65;;;3.33;;
54123;SDS011;55741;53.252;5.788;2023-03-14T10:12:34;16.65;;;2.95;;
54123;SDS011;55741;53.252;5.788;2023-03-14T10:15:03;18.42;;;2.92;;
54123;SDS011;55741;53.252;5.788;2023-03-14T10:17:38;20.20;;;3.15;;
54123;SDS011;55741;53.252;5.788;2023-03-14T10:22:57;14.23;;;3.03;;
54123;SDS011;55741;53.252;5.788;2023-03-14T10:25:57;15.38;;;3.38;;
54123;SDS011;55741;53.252;5.788;2023-03-14T10:28:33;19.65;;;2.60;;
54123;SDS011;55741;53.252;5.788;2023-03-14T10:31:03;19.92;;;3.47;;
54123;SDS011;55741;53.252;5.788;2023-03-14T10:33:30;20.50;;;3.05;;
54123;SDS011;55741;53.252;5.788;2023-03-14T10:36:00;21.08;;;2.97;;
54123;SDS011;55741;53.252;5.788;2023-03-14T10:38:35;19.40;;;3.10;;
54123;SDS011;55741;53.252;5.788;2023-03-14T10:41:03;12.85;;;2.65;;
54123;SDS011;55741;53.252;5.788;2023-03-14T10:43:51;10.65;;;2.35;;
54123;SDS011;55741;53.252;5.788;2023-03-14T10:46:23;10.35;;;2.45;;
54123;SDS011;55741;53.252;5.788;2023-03-14T10:48:51;12.00;;;2.15;;
54123;SDS011;55741;53.252;5.788;2023-03-14T10:51:22;10.18;;;2.00;;
54123;SDS011;55741;53.252;5.788;2023-03-14T10:56:26;11.80;;;2.08;;
54123;SDS011;55741;53.252;5.788;2023-03-14T10:58:58;7.47;;;1.75;;
54123;SDS011;55741;53.252;5.788;2023-03-14T11:07:31;7.90;;;1.92;;
54123;SDS011;55741;53.252;5.788;2023-03-14T11:15:58;12.52;;;2.78;;
54123;SDS011;55741;53.252;5.788;2023-03-14T11:20:55;13.52;;;2.20;;
54123;SDS011;55741;53.252;5.788;2023-03-14T11:23:42;11.00;;;2.67;;
54123;SDS011;55741;53.252;5.788;2023-03-14T11:26:33;16.88;;;2.75;;
54123;SDS011;55741;53.252;5.788;2023-03-14T11:29:18;9.20;;;1.98;;
54123;SDS011;55741;53.252;5.788;2023-03-14T11:31:45;9.65;;;2.33;;
54123;SDS011;55741;53.252;5.788;2023-03-14T11:37:17;18.73;;;2.80;;
54123;SDS011;55741;53.252;5.788;2023-03-14T11:42:31;13.57;;;2.53;;
54123;SDS011;55741;53.252;5.788;2023-03-14T11:45:00;19.20;;;2.85;;
54123;SDS011;55741;53.252;5.788;2023-03-14T11:47:32;22.70;;;3.17;;
54123;SDS011;55741;53.252;5.788;2023-03-14T11:55:22;16.33;;;2.63;;
54123;SDS011;55741;53.252;5.788;2023-03-14T11:57:51;11.15;;;2.45;;
54123;SDS011;55741;53.252;5.788;2023-03-14T12:00:22;9.07;;;1.98;;
54123;SDS011;55741;53.252;5.788;2023-03-14T12:13:09;7.35;;;1.83;;
54123;SDS011;55741;53.252;5.788;2023-03-14T12:15:40;11.52;;;2.75;;
54123;SDS011;55741;53.252;5.788;2023-03-14T12:20:54;11.05;;;2.15;;
54123;SDS011;55741;53.252;5.788;2023-03-14T12:23:22;10.13;;;2.35;;
54123;SDS011;55741;53.252;5.788;2023-03-14T12:26:06;15.88;;;2.50;;
54123;SDS011;55741;53.252;5.788;2023-03-14T12:28:49;9.70;;;2.75;;
54123;SDS011;55741;53.252;5.788;2023-03-14T12:42:37;17.38;;;2.63;;
54123;SDS011;55741;53.252;5.788;2023-03-14T12:45:27;11.07;;;2.85;;
54123;SDS011;55741;53.252;5.788;2023-03-14T12:50:41;10.35;;;2.47;;
54123;SDS011;55741;53.252;5.788;2023-03-14T12:55:49;10.20;;;2.90;;
54123;SDS011;55741;53.252;5.788;2023-03-14T13:03:45;12.63;;;2.38;;
54123;SDS011;55741;53.252;5.788;2023-03-14T13:06:44;12.05;;;2.55;;
54123;SDS011;55741;53.252;5.788;2023-03-14T13:12:09;12.02;;;2.00;;
54123;SDS011;55741;53.252;5.788;2023-03-14T13:17:15;11.90;;;2.70;;
54123;SDS011;55741;53.252;5.788;2023-03-14T13:19:50;16.67;;;2.08;;
54123;SDS011;55741;53.252;5.788;2023-03-14T13:22:23;9.75;;;2.15;;
54123;SDS011;55741;53.252;5.788;2023-03-14T13:25:00;15.00;;;2.47;;
54123;SDS011;55741;53.252;5.788;2023-03-14T13:27:31;12.88;;;2.92;;
54123;SDS011;55741;53.252;5.788;2023-03-14T13:30:04;11.20;;;3.38;;
54123;SDS011;55741;53.252;5.788;2023-03-14T13:32:41;12.43;;;2.33;;
54123;SDS011;55741;53.252;5.788;2023-03-14T13:35:16;11.15;;;2.60;;
54123;SDS011;55741;53.252;5.788;2023-03-14T13:37:51;11.00;;;2.03;;
54123;SDS011;55741;53.252;5.788;2023-03-14T13:40:24;12.88;;;2.05;;
54123;SDS011;55741;53.252;5.788;2023-03-14T13:45:41;12.17;;;2.53;;
54123;SDS011;55741;53.252;5.788;2023-03-14T13:48:15;14.10;;;1.88;;
54123;SDS011;55741;53.252;5.788;2023-03-14T13:50:51;8.73;;;2.05;;
54123;SDS011;55741;53.252;5.788;2023-03-14T13:53:26;6.38;;;1.75;;
54123;SDS011;55741;53.252;5.788;2023-03-14T13:55:52;8.07;;;1.80;;
54123;SDS011;55741;53.252;5.788;2023-03-14T13:58:23;8.75;;;1.80;;
54123;SDS011;55741;53.252;5.788;2023-03-14T14:01:05;7.55;;;2.22;;
54123;SDS011;55741;53.252;5.788;2023-03-14T14:03:53;10.38;;;2.30;;
54123;SDS011;55741;53.252;5.788;2023-03-14T14:06:31;14.20;;;2.92;;
54123;SDS011;55741;53.252;5.788;2023-03-14T14:08:59;11.77;;;1.75;;
54123;SDS011;55741;53.252;5.788;2023-03-14T14:11:34;6.97;;;1.83;;
54123;SDS011;55741;53.252;5.788;2023-03-14T14:14:09;10.68;;;2.13;;
54123;SDS011;55741;53.252;5.788;2023-03-14T14:16:38;6.78;;;1.80;;
54123;SDS011;55741;53.252;5.788;2023-03-14T14:19:05;13.43;;;2.50;;
54123;SDS011;55741;53.252;5.788;2023-03-14T14:21:31;11.50;;;2.67;;
54123;SDS011;55741;53.252;5.788;2023-03-14T14:23:58;9.95;;;2.50;;
54123;SDS011;55741;53.252;5.788;2023-03-14T14:26:25;14.63;;;2.97;;
54123;SDS011;55741;53.252;5.788;2023-03-14T14:29:02;9.85;;;2.17;;
54123;SDS011;55741;53.252;5.788;2023-03-14T14:31:30;10.07;;;2.08;;
54123;SDS011;55741;53.252;5.788;2023-03-14T14:33:57;13.57;;;2.60;;
54123;SDS011;55741;53.252;5.788;2023-03-14T14:36:27;10.43;;;2.22;;
54123;SDS011;55741;53.252;5.788;2023-03-14T14:41:39;14.85;;;2.53;;
54123;SDS011;55741;53.252;5.788;2023-03-14T14:44:05;16.80;;;3.65;;
54123;SDS011;55741;53.252;5.788;2023-03-14T14:46:32;13.73;;;2.72;;
54123;SDS011;55741;53.252;5.788;2023-03-14T14:49:19;14.88;;;2.80;;
54123;SDS011;55741;53.252;5.788;2023-03-14T14:51:50;21.73;;;3.55;;
54123;SDS011;55741;53.252;5.788;2023-03-14T14:54:17;11.98;;;2.20;;
54123;SDS011;55741;53.252;5.788;2023-03-14T14:56:49;12.75;;;2.53;;
54123;SDS011;55741;53.252;5.788;2023-03-14T14:59:24;15.93;;;2.85;;
54123;SDS011;55741;53.252;5.788;2023-03-14T15:02:00;10.75;;;2.03;;
54123;SDS011;55741;53.252;5.788;2023-03-14T15:04:29;13.80;;;2.63;;
54123;SDS011;55741;53.252;5.788;2023-03-14T15:06:56;10.18;;;2.00;;
54123;SDS011;55741;53.252;5.788;2023-03-14T15:09:22;15.05;;;2.72;;
54123;SDS011;55741;53.252;5.788;2023-03-14T15:11:49;12.23;;;2.50;;
54123;SDS011;55741;53.252;5.788;2023-03-14T15:14:15;15.65;;;2.92;;
54123;SDS011;55741;53.252;5.788;2023-03-14T15:16:41;16.30;;;4.20;;
54123;SDS011;55741;53.252;5.788;2023-03-14T15:19:12;16.48;;;3.10;;
54123;SDS011;55741;53.252;5.788;2023-03-14T15:21:50;13.63;;;2.67;;
54123;SDS011;55741;53.252;5.788;2023-03-14T15:24:17;16.00;;;2.63;;
54123;SDS011;55741;53.252;5.788;2023-03-14T15:26:43;15.52;;;2.88;;
54123;SDS011;55741;53.252;5.788;2023-03-14T15:29:10;20.17;;;3.05;;
54123;SDS011;55741;53.252;5.788;2023-03-14T15:31:38;17.42;;;3.40;;
54123;SDS011;55741;53.252;5.788;2023-03-14T15:34:05;11.35;;;2.63;;
54123;SDS011;55741;53.252;5.788;2023-03-14T15:36:33;14.75;;;2.42;;
54123;SDS011;55741;53.252;5.788;2023-03-14T15:39:00;10.90;;;1.70;;
54123;SDS011;55741;53.252;5.788;2023-03-14T15:41:28;17.23;;;3.13;;
54123;SDS011;55741;53.252;5.788;2023-03-14T15:43:55;15.63;;;2.88;;
54123;SDS011;55741;53.252;5.788;2023-03-14T15:46:21;11.65;;;2.90;;
54123;SDS011;55741;53.252;5.788;2023-03-14T15:48:48;13.18;;;2.47;;
54123;SDS011;55741;53.252;5.788;2023-03-14T15:51:15;12.40;;;2.47;;
54123;SDS011;55741;53.252;5.788;2023-03-14T15:53:41;9.55;;;2.28;;
54123;SDS011;55741;53.252;5.788;2023-03-14T15:56:12;11.98;;;2.22;;
54123;SDS011;55741;53.252;5.788;2023-03-14T15:58:40;11.35;;;2.08;;
54123;SDS011;55741;53.252;5.788;2023-03-14T16:01:07;16.20;;;2.15;;
54123;SDS011;55741;53.252;5.788;2023-03-14T16:03:36;19.90;;;4.90;;
54123;SDS011;55741;53.252;5.788;2023-03-14T16:06:04;15.43;;;2.10;;
54123;SDS011;55741;53.252;5.788;2023-03-14T16:08:30;13.43;;;2.22;;
54123;SDS011;55741;53.252;5.788;2023-03-14T16:13:23;13.02;;;1.80;;
54123;SDS011;55741;53.252;5.788;2023-03-14T16:15:54;12.50;;;2.70;;
54123;SDS011;55741;53.252;5.788;2023-03-14T16:18:21;10.98;;;2.85;;
54123;SDS011;55741;53.252;5.788;2023-03-14T16:20:54;12.90;;;2.30;;